Anzahl Datensätze: 143
min. Temperatur: 4.9 °C
max. Temperatur: 12.1 °C
max. Windgeschwindigkeit: 10.4 km/h
Niederschlagsumme: 0.2 mm
| Datum |
Zeit |
Temp °C |
Feuchte % |
Taupunkt °C |
Luftdruck hPa |
Wind km/h |
Windrichtung |
Strahlung w/m² |
Niederschlag mm |
|---|---|---|---|---|---|---|---|---|---|
| 01.11.2025 | 00:09 | 6.9 | 89 | 5.3 | 1016.5 | 2.5 | SSO | 0 | 0.0 |
| 01.11.2025 | 00:20 | 6.8 | 90 | 5.3 | 1016.4 | 2.2 | NO | 0 | 0.0 |
| 01.11.2025 | 00:30 | 6.8 | 90 | 5.4 | 1016.5 | 2.9 | NNO | 0 | 0.0 |
| 01.11.2025 | 00:40 | 6.4 | 91 | 5.1 | 1016.5 | 2.9 | SSO | 0 | 0.0 |
| 01.11.2025 | 00:50 | 6.2 | 93 | 5.2 | 1016.4 | 2.2 | N | 0 | 0.0 |
| 01.11.2025 | 01:00 | 6.5 | 92 | 5.3 | 1016.2 | 2.2 | S | 0 | 0.0 |
| 01.11.2025 | 01:10 | 6.4 | 92 | 5.2 | 1016.1 | 3.2 | SSO | 0 | 0.0 |
| 01.11.2025 | 01:20 | 6.1 | 93 | 5.0 | 1016.2 | 1.4 | N | 0 | 0.0 |
| 01.11.2025 | 01:30 | 6.1 | 93 | 5.0 | 1016.3 | 1.1 | N | 0 | 0.0 |
| 01.11.2025 | 01:40 | 6.1 | 93 | 4.9 | 1016.4 | 2.5 | N | 0 | 0.0 |
| 01.11.2025 | 01:50 | 6.2 | 94 | 5.2 | 1016.3 | 3.6 | NNO | 0 | 0.0 |
| 01.11.2025 | 02:00 | 6.2 | 94 | 5.3 | 1016.4 | 2.5 | N | 0 | 0.0 |
| 01.11.2025 | 02:10 | 6.2 | 93 | 5.2 | 1016.6 | 2.2 | N | 0 | 0.0 |
| 01.11.2025 | 02:20 | 6.1 | 92 | 4.9 | 1016.7 | 3.2 | N | 0 | 0.0 |
| 01.11.2025 | 02:30 | 6.2 | 91 | 4.9 | 1016.7 | 1.4 | NO | 0 | 0.0 |
| 01.11.2025 | 02:40 | 6.2 | 90 | 4.7 | 1016.7 | 2.9 | NO | 0 | 0.0 |
| 01.11.2025 | 02:50 | 6.1 | 92 | 4.8 | 1016.8 | 1.8 | ONO | 0 | 0.0 |
| 01.11.2025 | 03:00 | 6.1 | 92 | 4.8 | 1016.5 | 1.8 | NO | 0 | 0.0 |
| 01.11.2025 | 03:10 | 5.8 | 92 | 4.6 | 1016.9 | 2.2 | NNO | 0 | 0.0 |
| 01.11.2025 | 03:20 | 5.7 | 93 | 4.7 | 1016.9 | 1.4 | NO | 0 | 0.0 |
| 01.11.2025 | 03:30 | 5.6 | 93 | 4.5 | 1016.8 | 5.4 | WSW | 0 | 0.0 |
| 01.11.2025 | 03:40 | 5.1 | 95 | 4.3 | 1017.1 | 1.8 | SW | 0 | 0.0 |
| 01.11.2025 | 03:50 | 5.2 | 94 | 4.3 | 1017.1 | 0.4 | N | 0 | 0.0 |
| 01.11.2025 | 04:00 | 5.3 | 93 | 4.2 | 1016.8 | 0.7 | N | 0 | 0.0 |
| 01.11.2025 | 04:10 | 5.1 | 93 | 4.0 | 1016.7 | 1.4 | N | 0 | 0.0 |
| 01.11.2025 | 04:20 | 4.9 | 93 | 3.9 | 1016.5 | 2.5 | N | 0 | 0.0 |
| 01.11.2025 | 04:30 | 5.0 | 92 | 3.8 | 1016.5 | 0.4 | N | 0 | 0.0 |
| 01.11.2025 | 04:40 | 5.2 | 93 | 4.2 | 1016.2 | 1.8 | SO | 0 | 0.0 |
| 01.11.2025 | 04:50 | 5.1 | 93 | 4.0 | 1016.1 | 3.6 | NNO | 0 | 0.0 |
| 01.11.2025 | 05:00 | 5.1 | 92 | 3.9 | 1016.1 | 2.2 | NNO | 0 | 0.0 |
| 01.11.2025 | 05:10 | 5.4 | 93 | 4.4 | 1015.7 | 1.8 | S | 0 | 0.0 |
| 01.11.2025 | 05:20 | 4.9 | 92 | 3.8 | 1015.5 | 2.5 | NNO | 0 | 0.0 |
| 01.11.2025 | 05:31 | 5.1 | 93 | 4.0 | 1015.5 | 2.5 | N | 0 | 0.0 |
| 01.11.2025 | 05:41 | 5.1 | 93 | 4.0 | 1015.5 | 0.4 | N | 0 | 0.0 |
| 01.11.2025 | 05:51 | 5.3 | 93 | 4.2 | 1015.6 | 1.8 | NO | 0 | 0.0 |
| 01.11.2025 | 06:01 | 5.2 | 93 | 4.2 | 1015.3 | 1.4 | NO | 0 | 0.0 |
| 01.11.2025 | 06:11 | 5.0 | 93 | 3.9 | 1015.4 | 2.5 | NNO | 0 | 0.0 |
| 01.11.2025 | 06:21 | 5.1 | 92 | 4.0 | 1015.4 | 3.2 | NNO | 0 | 0.0 |
| 01.11.2025 | 06:31 | 5.2 | 93 | 4.1 | 1015.5 | 2.9 | NNO | 0 | 0.0 |
| 01.11.2025 | 06:41 | 5.3 | 93 | 4.2 | 1015.4 | 2.9 | N | 0 | 0.0 |
| 01.11.2025 | 06:51 | 5.6 | 93 | 4.5 | 1015.7 | 1.8 | NO | 0 | 0.0 |
| 01.11.2025 | 07:01 | 5.5 | 93 | 4.4 | 1015.9 | 4.3 | NNO | 0 | 0.0 |
| 01.11.2025 | 07:11 | 5.7 | 93 | 4.6 | 1016.0 | 1.8 | NNO | 2 | 0.0 |
| 01.11.2025 | 07:21 | 5.8 | 93 | 4.8 | 1016.0 | 3.6 | NO | 7 | 0.0 |
| 01.11.2025 | 07:31 | 5.5 | 94 | 4.6 | 1016.1 | 2.5 | NNO | 13 | 0.0 |
| 01.11.2025 | 07:41 | 5.5 | 94 | 4.6 | 1016.4 | 3.2 | NNO | 20 | 0.0 |
| 01.11.2025 | 07:51 | 5.6 | 94 | 4.8 | 1016.5 | 3.2 | N | 29 | 0.0 |
| 01.11.2025 | 08:01 | 5.8 | 93 | 4.8 | 1016.7 | 2.5 | SSO | 37 | 0.0 |
| 01.11.2025 | 08:11 | 5.6 | 93 | 4.6 | 1016.7 | 2.5 | NNO | 46 | 0.0 |
| 01.11.2025 | 08:21 | 5.8 | 94 | 4.9 | 1016.6 | 1.1 | N | 66 | 0.0 |
| 01.11.2025 | 08:31 | 6.3 | 93 | 5.2 | 1016.5 | 1.1 | S | 80 | 0.0 |
| 01.11.2025 | 08:41 | 6.7 | 92 | 5.5 | 1016.4 | 1.1 | N | 75 | 0.0 |
| 01.11.2025 | 08:51 | 7.2 | 91 | 5.8 | 1016.2 | 1.1 | N | 111 | 0.0 |
| 01.11.2025 | 09:01 | 7.8 | 89 | 6.2 | 1016.0 | 0.4 | N | 160 | 0.0 |
| 01.11.2025 | 09:11 | 7.6 | 90 | 6.1 | 1016.4 | 2.9 | SSW | 124 | 0.0 |
| 01.11.2025 | 09:21 | 7.8 | 90 | 6.3 | 1016.3 | 1.1 | N | 200 | 0.0 |
| 01.11.2025 | 09:31 | 8.7 | 88 | 6.9 | 1016.1 | 2.2 | S | 196 | 0.0 |
| 01.11.2025 | 09:41 | 8.0 | 89 | 6.3 | 1016.3 | 4.0 | S | 189 | 0.0 |
| 01.11.2025 | 09:51 | 8.7 | 88 | 6.8 | 1015.9 | 1.4 | S | 201 | 0.0 |
| 01.11.2025 | 10:01 | 9.2 | 83 | 6.4 | 1015.8 | 2.9 | SSW | 214 | 0.0 |
| 01.11.2025 | 10:11 | 9.3 | 81 | 6.2 | 1015.8 | 4.3 | S | 190 | 0.0 |
| 01.11.2025 | 10:21 | 8.7 | 84 | 6.2 | 1016.0 | 5.0 | S | 173 | 0.0 |
| 01.11.2025 | 10:31 | 8.9 | 85 | 6.5 | 1015.9 | 1.8 | S | 203 | 0.0 |
| 01.11.2025 | 10:41 | 9.2 | 81 | 6.2 | 1015.7 | 2.9 | SO | 154 | 0.0 |
| 01.11.2025 | 10:52 | 9.6 | 79 | 6.2 | 1015.6 | 0.7 | N | 129 | 0.0 |
| 01.11.2025 | 11:02 | 9.2 | 79 | 5.8 | 1015.8 | 4.3 | S | 106 | 0.0 |
| 01.11.2025 | 11:12 | 9.4 | 80 | 6.2 | 1015.5 | 0.7 | N | 109 | 0.0 |
| 01.11.2025 | 11:22 | 9.4 | 77 | 5.6 | 1015.5 | 3.2 | SSW | 99 | 0.0 |
| 01.11.2025 | 11:32 | 9.1 | 79 | 5.5 | 1015.4 | 1.8 | SSW | 112 | 0.0 |
| 01.11.2025 | 11:42 | 10.1 | 77 | 6.3 | 1015.1 | 1.1 | N | 156 | 0.0 |
| 01.11.2025 | 11:52 | 10.1 | 79 | 6.7 | 1015.1 | 2.9 | WSW | 164 | 0.0 |
| 01.11.2025 | 12:02 | 9.9 | 80 | 6.6 | 1015.4 | 0.7 | N | 114 | 0.0 |
| 01.11.2025 | 12:12 | 9.9 | 82 | 6.8 | 1015.1 | 4.0 | S | 118 | 0.0 |
| 01.11.2025 | 12:22 | 9.7 | 80 | 6.5 | 1014.7 | 3.2 | SSO | 72 | 0.0 |
| 01.11.2025 | 12:32 | 9.8 | 80 | 6.5 | 1014.5 | 2.2 | S | 85 | 0.0 |
| 01.11.2025 | 12:42 | 10.0 | 81 | 6.9 | 1014.8 | 2.9 | WSW | 84 | 0.0 |
| 01.11.2025 | 12:52 | 10.1 | 80 | 6.9 | 1014.7 | 5.8 | S | 94 | 0.0 |
| 01.11.2025 | 13:02 | 9.9 | 82 | 7.0 | 1014.9 | 4.7 | S | 90 | 0.0 |
| 01.11.2025 | 13:12 | 9.9 | 81 | 6.8 | 1014.8 | 3.2 | NW | 70 | 0.0 |
| 01.11.2025 | 13:22 | 10.2 | 76 | 6.2 | 1014.9 | 0.7 | N | 157 | 0.0 |
| 01.11.2025 | 13:32 | 10.5 | 77 | 6.6 | 1014.7 | 4.3 | SSW | 191 | 0.0 |
| 01.11.2025 | 13:42 | 10.7 | 76 | 6.6 | 1014.5 | 5.0 | S | 139 | 0.0 |
| 01.11.2025 | 13:52 | 10.9 | 75 | 6.6 | 1014.4 | 2.5 | S | 103 | 0.0 |
| 01.11.2025 | 14:02 | 11.1 | 75 | 6.9 | 1014.2 | 0.7 | N | 102 | 0.0 |
| 01.11.2025 | 14:12 | 11.0 | 74 | 6.4 | 1014.2 | 2.9 | N | 94 | 0.0 |
| 01.11.2025 | 14:22 | 10.8 | 75 | 6.5 | 1014.2 | 5.0 | S | 97 | 0.0 |
| 01.11.2025 | 14:32 | 11.2 | 73 | 6.6 | 1014.1 | 1.1 | N | 72 | 0.0 |
| 01.11.2025 | 14:42 | 11.6 | 71 | 6.5 | 1013.8 | 3.6 | S | 49 | 0.0 |
| 01.11.2025 | 14:52 | 11.6 | 72 | 6.8 | 1013.8 | 1.8 | N | 47 | 0.0 |
| 01.11.2025 | 15:02 | 12.1 | 71 | 7.0 | 1013.7 | 4.0 | WSW | 71 | 0.0 |
| 01.11.2025 | 15:12 | 11.6 | 78 | 8.0 | 1014.5 | 3.2 | N | 51 | 0.0 |
| 01.11.2025 | 15:22 | 11.0 | 83 | 8.1 | 1014.7 | 4.3 | S | 41 | 0.0 |
| 01.11.2025 | 15:32 | 10.6 | 80 | 7.3 | 1014.3 | 2.2 | SSW | 70 | 0.0 |
| 01.11.2025 | 15:42 | 10.9 | 79 | 7.4 | 1014.3 | 4.3 | N | 68 | 0.1 |
| 01.11.2025 | 15:52 | 11.2 | 79 | 7.8 | 1014.1 | 3.2 | NNO | 67 | 0.1 |
| 01.11.2025 | 16:02 | 11.0 | 81 | 7.8 | 1014.4 | 3.6 | OSO | 39 | 0.1 |
| 01.11.2025 | 16:12 | 10.8 | 77 | 7.0 | 1014.8 | 1.4 | OSO | 37 | 0.1 |
| 01.11.2025 | 16:23 | 10.7 | 78 | 7.0 | 1014.8 | 2.2 | W | 34 | 0.1 |
| 01.11.2025 | 16:33 | 10.7 | 78 | 7.0 | 1014.6 | 6.5 | NNO | 16 | 0.1 |
| 01.11.2025 | 16:43 | 11.1 | 78 | 7.4 | 1014.5 | 5.4 | S | 10 | 0.1 |
| 01.11.2025 | 16:53 | 10.8 | 79 | 7.2 | 1014.8 | 2.2 | NO | 5 | 0.1 |
| 01.11.2025 | 17:03 | 10.8 | 79 | 7.3 | 1014.8 | 2.5 | SSW | 2 | 0.1 |
| 01.11.2025 | 17:13 | 10.6 | 78 | 6.9 | 1015.1 | 3.2 | NNO | 0 | 0.1 |
| 01.11.2025 | 17:23 | 10.6 | 80 | 7.3 | 1014.9 | 3.2 | N | 0 | 0.1 |
| 01.11.2025 | 17:33 | 10.6 | 83 | 7.8 | 1015.0 | 1.4 | N | 0 | 0.1 |
| 01.11.2025 | 17:43 | 10.4 | 84 | 7.9 | 1015.0 | 2.9 | NNW | 0 | 0.1 |
| 01.11.2025 | 17:53 | 10.2 | 84 | 7.6 | 1015.2 | 1.1 | N | 0 | 0.1 |
| 01.11.2025 | 18:03 | 10.2 | 84 | 7.7 | 1015.2 | 1.8 | NNO | 0 | 0.1 |
| 01.11.2025 | 18:13 | 10.2 | 83 | 7.6 | 1015.3 | 2.5 | N | 0 | 0.1 |
| 01.11.2025 | 18:23 | 10.1 | 87 | 8.0 | 1015.6 | 1.1 | N | 0 | 0.1 |
| 01.11.2025 | 18:33 | 10.0 | 87 | 8.0 | 1015.8 | 1.1 | NNW | 0 | 0.1 |
| 01.11.2025 | 18:43 | 10.0 | 87 | 8.0 | 1015.5 | 2.2 | NO | 0 | 0.1 |
| 01.11.2025 | 18:53 | 10.1 | 86 | 7.9 | 1015.3 | 2.9 | N | 0 | 0.2 |
| 01.11.2025 | 19:03 | 10.1 | 87 | 8.1 | 1015.3 | 0.7 | N | 0 | 0.2 |
| 01.11.2025 | 19:13 | 10.2 | 87 | 8.1 | 1015.5 | 0.7 | N | 0 | 0.2 |
| 01.11.2025 | 19:23 | 9.9 | 89 | 8.1 | 1015.4 | 0.4 | N | 0 | 0.2 |
| 01.11.2025 | 19:33 | 9.8 | 88 | 8.0 | 1015.3 | 2.9 | N | 0 | 0.2 |
| 01.11.2025 | 19:43 | 9.8 | 89 | 8.0 | 1015.3 | 2.9 | N | 0 | 0.2 |
| 01.11.2025 | 19:53 | 10.2 | 84 | 7.6 | 1015.2 | 1.1 | NW | 0 | 0.2 |
| 01.11.2025 | 20:03 | 10.0 | 86 | 7.8 | 1015.4 | 2.5 | SSO | 0 | 0.2 |
| 01.11.2025 | 20:13 | 9.6 | 90 | 8.0 | 1015.4 | 2.2 | NO | 0 | 0.2 |
| 01.11.2025 | 20:23 | 9.5 | 90 | 7.9 | 1015.3 | 1.4 | NNW | 0 | 0.2 |
| 01.11.2025 | 20:33 | 9.6 | 89 | 7.9 | 1015.4 | 0.4 | N | 0 | 0.2 |
| 01.11.2025 | 20:43 | 9.6 | 89 | 7.9 | 1015.5 | 1.4 | NNO | 0 | 0.2 |
| 01.11.2025 | 20:53 | 9.6 | 89 | 7.9 | 1015.1 | 0.7 | N | 0 | 0.2 |
| 01.11.2025 | 21:03 | 9.4 | 90 | 7.8 | 1015.4 | 1.4 | NO | 0 | 0.2 |
| 01.11.2025 | 21:13 | 9.6 | 89 | 7.9 | 1015.2 | 2.5 | S | 0 | 0.2 |
| 01.11.2025 | 21:24 | 9.3 | 91 | 7.9 | 1015.4 | 2.5 | NW | 0 | 0.2 |
| 01.11.2025 | 21:34 | 9.6 | 90 | 8.0 | 1015.1 | 1.4 | SSW | 0 | 0.2 |
| 01.11.2025 | 21:44 | 9.4 | 90 | 7.9 | 1015.3 | 3.2 | S | 0 | 0.2 |
| 01.11.2025 | 21:54 | 9.5 | 90 | 7.9 | 1015.5 | 3.6 | SSW | 0 | 0.2 |
| 01.11.2025 | 22:04 | 9.3 | 91 | 8.0 | 1015.4 | 1.8 | NO | 0 | 0.2 |
| 01.11.2025 | 22:14 | 9.1 | 91 | 7.7 | 1015.4 | 1.8 | S | 0 | 0.2 |
| 01.11.2025 | 22:24 | 9.1 | 90 | 7.6 | 1015.5 | 0.0 | N | 0 | 0.2 |
| 01.11.2025 | 22:34 | 9.1 | 92 | 7.8 | 1015.5 | 2.5 | NNO | 0 | 0.2 |
| 01.11.2025 | 22:44 | 9.2 | 90 | 7.8 | 1015.1 | 1.4 | OSO | 0 | 0.2 |
| 01.11.2025 | 22:54 | 9.0 | 92 | 7.8 | 1015.4 | 2.2 | NNW | 0 | 0.2 |
| 01.11.2025 | 23:04 | 9.1 | 92 | 7.9 | 1015.4 | 2.5 | NNO | 0 | 0.2 |
| 01.11.2025 | 23:14 | 9.0 | 93 | 7.9 | 1015.4 | 1.1 | N | 0 | 0.2 |
| 01.11.2025 | 23:24 | 9.2 | 92 | 8.1 | 1015.1 | 2.2 | NO | 0 | 0.2 |
| 01.11.2025 | 23:34 | 9.1 | 93 | 8.0 | 1015.4 | 1.4 | SW | 0 | 0.2 |
| 01.11.2025 | 23:44 | 9.0 | 92 | 7.8 | 1015.3 | 2.2 | NNO | 0 | 0.2 |
| 01.11.2025 | 23:54 | 9.1 | 91 | 7.7 | 1015.3 | 1.8 | N | 0 | 0.2 |